createdAt,value
2019-04-27T00:01:15.193Z,3.00
2019-04-27T00:03:44.826Z,3.40
2019-04-27T00:06:13.505Z,3.70
2019-04-27T00:08:45.135Z,3.57
2019-04-27T00:11:19.418Z,3.07
2019-04-27T00:13:46.097Z,2.80
2019-04-27T00:16:14.269Z,2.70
2019-04-27T00:18:45.156Z,3.13
2019-04-27T00:21:13.505Z,2.70
2019-04-27T00:23:42.975Z,2.87
2019-04-27T00:26:09.419Z,2.70
2019-04-27T00:28:36.030Z,3.50
2019-04-27T00:31:03.300Z,3.37
2019-04-27T00:33:29.747Z,3.80
2019-04-27T00:35:57.955Z,3.10
2019-04-27T00:38:35.315Z,2.97
2019-04-27T00:41:03.687Z,3.00
2019-04-27T00:43:29.972Z,3.50
2019-04-27T00:45:56.448Z,2.97
2019-04-27T00:48:23.420Z,3.80
2019-04-27T00:50:49.931Z,2.70
2019-04-27T00:53:16.160Z,2.70
2019-04-27T00:55:47.327Z,2.90
2019-04-27T00:58:15.581Z,3.23
2019-04-27T01:01:01.979Z,2.60
2019-04-27T01:03:30.167Z,3.07
2019-04-27T01:05:56.691Z,2.80
2019-04-27T01:08:23.044Z,2.70
2019-04-27T01:10:49.348Z,2.60
2019-04-27T01:13:15.887Z,2.57
2019-04-27T01:15:43.051Z,2.90
2019-04-27T01:18:14.971Z,3.03
2019-04-27T01:20:38.807Z,3.97
2019-04-27T01:23:06.652Z,2.93
2019-04-27T01:25:38.815Z,2.90
2019-04-27T01:28:10.250Z,3.37
2019-04-27T01:30:44.114Z,2.83
2019-04-27T01:33:10.489Z,2.80
2019-04-27T01:35:36.732Z,3.20
2019-04-27T01:38:03.252Z,3.20
2019-04-27T01:40:29.686Z,3.50
2019-04-27T01:42:58.808Z,2.97
2019-04-27T01:45:24.058Z,2.87
2019-04-27T01:47:50.343Z,2.90
2019-04-27T01:50:18.734Z,2.87
2019-04-27T01:52:45.154Z,3.33
2019-04-27T01:55:11.768Z,3.00
2019-04-27T01:57:38.673Z,3.23
2019-04-27T02:00:17.367Z,3.17
2019-04-27T02:02:46.141Z,3.17
2019-04-27T02:05:19.048Z,3.87
2019-04-27T02:07:45.446Z,3.30
2019-04-27T02:10:13.711Z,2.87
2019-04-27T02:12:40.248Z,3.20
2019-04-27T02:15:06.835Z,4.20
2019-04-27T02:17:33.221Z,5.87
2019-04-27T02:19:59.576Z,4.57
2019-04-27T02:22:26.077Z,3.57
2019-04-27T02:24:54.183Z,3.57
2019-04-27T02:27:22.308Z,3.10
2019-04-27T02:30:11.526Z,3.17
2019-04-27T02:32:45.191Z,4.33
2019-04-27T02:35:12.210Z,3.50
2019-04-27T02:37:40.328Z,3.53
2019-04-27T02:40:20.499Z,3.40
2019-04-27T02:42:50.372Z,3.20
2019-04-27T02:45:16.927Z,9.43
2019-04-27T02:47:43.287Z,4.50
2019-04-27T02:50:10.735Z,3.63
2019-04-27T02:52:40.435Z,3.80
2019-04-27T02:55:09.260Z,3.47
2019-04-27T02:57:35.426Z,3.97
2019-04-27T03:00:03.272Z,3.27
2019-04-27T03:02:31.462Z,4.13
2019-04-27T03:05:00.254Z,3.90
2019-04-27T03:07:26.238Z,4.03
2019-04-27T03:09:52.607Z,4.73
2019-04-27T03:12:20.727Z,3.80
2019-04-27T03:15:01.253Z,3.57
2019-04-27T03:17:31.053Z,4.13
2019-04-27T03:19:59.841Z,3.70
2019-04-27T03:22:30.987Z,3.73
2019-04-27T03:25:14.928Z,3.87
2019-04-27T03:27:50.432Z,3.80
2019-04-27T03:30:21.832Z,3.60
2019-04-27T03:32:45.389Z,3.80
2019-04-27T03:35:13.261Z,4.20
2019-04-27T03:37:40.599Z,3.80
2019-04-27T03:40:10.087Z,4.30
2019-04-27T03:42:40.078Z,4.20
2019-04-27T03:45:06.775Z,4.77
2019-04-27T03:47:33.410Z,3.90
2019-04-27T03:50:00.184Z,3.93
2019-04-27T03:52:45.446Z,3.77
2019-04-27T03:55:19.499Z,3.97
2019-04-27T03:58:02.247Z,3.80
2019-04-27T04:00:30.467Z,4.50
2019-04-27T04:02:57.163Z,3.63
2019-04-27T04:05:23.610Z,3.93
2019-04-27T04:07:50.523Z,4.13
2019-04-27T04:10:19.812Z,4.87
2019-04-27T04:12:56.081Z,3.67
2019-04-27T04:15:23.867Z,4.10
2019-04-27T04:17:50.045Z,3.73
2019-04-27T04:20:16.426Z,4.10
2019-04-27T04:22:42.663Z,3.83
2019-04-27T04:25:10.749Z,3.43
2019-04-27T04:27:40.134Z,3.37
2019-04-27T04:30:09.739Z,3.67
2019-04-27T04:32:35.352Z,4.00
2019-04-27T04:35:21.181Z,7.63
2019-04-27T04:37:49.696Z,5.57
2019-04-27T04:40:19.717Z,3.43
2019-04-27T04:42:49.914Z,4.07
2019-04-27T04:45:20.156Z,4.37
2019-04-27T04:47:51.016Z,3.40
2019-04-27T04:50:17.331Z,4.73
2019-04-27T04:52:43.673Z,3.73
2019-04-27T04:55:10.234Z,5.20
2019-04-27T04:57:37.049Z,5.43
2019-04-27T05:00:06.155Z,3.53
2019-04-27T05:02:32.579Z,5.33
2019-04-27T05:04:59.234Z,6.47
2019-04-27T05:07:25.905Z,5.03
2019-04-27T05:09:52.287Z,4.20
2019-04-27T05:12:19.045Z,5.60
2019-04-27T05:14:45.788Z,5.03
2019-04-27T05:17:12.101Z,4.13
2019-04-27T05:19:38.956Z,3.80
2019-04-27T05:22:05.572Z,3.93
2019-04-27T05:24:31.806Z,3.97
2019-04-27T05:26:59.085Z,4.50
2019-04-27T05:29:25.897Z,5.23
2019-04-27T05:31:52.097Z,4.30
2019-04-27T05:34:19.740Z,3.70
2019-04-27T05:36:49.016Z,3.30
2019-04-27T05:39:18.038Z,3.97
2019-04-27T05:41:42.367Z,5.87
2019-04-27T05:44:12.764Z,4.03
2019-04-27T05:46:55.686Z,4.47
2019-04-27T05:49:26.734Z,4.53
2019-04-27T05:51:52.980Z,3.70
2019-04-27T05:54:19.414Z,4.70
2019-04-27T05:56:45.739Z,3.70
2019-04-27T05:59:14.583Z,3.70
2019-04-27T06:01:40.347Z,3.70
2019-04-27T06:04:06.678Z,3.60
2019-04-27T06:06:33.156Z,4.27
2019-04-27T06:08:59.562Z,4.47
2019-04-27T06:11:25.874Z,4.80
2019-04-27T06:13:52.202Z,3.87
2019-04-27T06:16:19.454Z,5.23
2019-04-27T06:18:45.989Z,3.73
2019-04-27T06:21:12.750Z,3.77
2019-04-27T06:23:39.198Z,4.00
2019-04-27T06:26:05.595Z,3.33
2019-04-27T06:28:31.925Z,3.70
2019-04-27T06:30:59.426Z,3.97
2019-04-27T06:33:31.945Z,3.93
2019-04-27T06:35:54.313Z,6.20
2019-04-27T06:38:20.627Z,3.40
2019-04-27T06:40:46.896Z,6.30
2019-04-27T06:43:13.289Z,3.83
2019-04-27T06:45:39.554Z,5.80
2019-04-27T06:48:05.761Z,5.73
2019-04-27T06:50:32.059Z,4.17
2019-04-27T06:52:59.101Z,4.87
2019-04-27T06:55:39.199Z,4.03
2019-04-27T06:58:05.664Z,5.60
2019-04-27T07:00:32.792Z,5.10
2019-04-27T07:02:59.722Z,4.70
2019-04-27T07:05:26.235Z,4.40
2019-04-27T07:07:52.890Z,5.93
2019-04-27T07:10:19.518Z,5.07
2019-04-27T07:12:46.164Z,4.33
2019-04-27T07:15:15.390Z,4.60
2019-04-27T07:17:40.649Z,4.27
2019-04-27T07:20:06.897Z,4.83
2019-04-27T07:22:33.311Z,4.87
2019-04-27T07:24:59.606Z,5.23
2019-04-27T07:27:25.973Z,5.03
2019-04-27T07:29:53.658Z,5.30
2019-04-27T07:32:20.271Z,6.23
2019-04-27T07:34:46.602Z,5.57
2019-04-27T07:37:12.926Z,5.00
2019-04-27T07:39:39.268Z,6.27
2019-04-27T07:42:05.593Z,5.20
2019-04-27T07:44:50.034Z,6.50
2019-04-27T07:47:22.429Z,5.47
2019-04-27T07:49:49.707Z,4.77
2019-04-27T07:52:16.312Z,4.70
2019-04-27T07:54:42.744Z,4.77
2019-04-27T07:57:09.862Z,4.80
2019-04-27T07:59:36.332Z,5.73
2019-04-27T08:02:03.167Z,6.60
2019-04-27T08:04:29.500Z,6.77
2019-04-27T08:06:55.829Z,5.93
2019-04-27T08:09:22.156Z,4.73
2019-04-27T08:11:48.852Z,5.53
2019-04-27T08:14:15.237Z,4.97
2019-04-27T08:16:41.563Z,4.00
2019-04-27T08:19:09.759Z,3.97
2019-04-27T08:21:43.617Z,4.23
2019-04-27T08:24:04.342Z,5.47
2019-04-27T08:26:32.546Z,5.00
2019-04-27T08:29:16.166Z,5.43
2019-04-27T08:31:56.513Z,5.63
2019-04-27T08:34:32.245Z,4.20
2019-04-27T08:37:00.809Z,5.70
2019-04-27T08:39:27.704Z,3.83
2019-04-27T08:41:54.633Z,3.53
2019-04-27T08:44:20.961Z,7.47
2019-04-27T08:46:47.519Z,8.10
2019-04-27T08:52:42.076Z,5.43
2019-04-27T08:55:09.554Z,6.47
2019-04-27T08:57:36.104Z,5.10
2019-04-27T09:00:06.071Z,5.37
2019-04-27T09:02:42.061Z,5.97
2019-04-27T09:05:00.476Z,6.73
2019-04-27T09:07:44.057Z,5.20
2019-04-27T09:10:12.710Z,5.20
2019-04-27T09:12:41.561Z,6.90
2019-04-27T09:15:12.885Z,6.17
2019-04-27T09:17:41.030Z,6.67
2019-04-27T09:20:09.638Z,4.63
2019-04-27T09:22:35.887Z,7.50
2019-04-27T09:25:03.314Z,10.20
2019-04-27T09:27:29.651Z,4.13
2019-04-27T09:29:55.974Z,6.90
2019-04-27T09:32:22.327Z,8.03
2019-04-27T09:34:48.743Z,8.57
2019-04-27T09:37:16.006Z,7.50
2019-04-27T09:39:42.422Z,5.73
2019-04-27T09:42:08.666Z,7.30
2019-04-27T09:44:36.902Z,9.03
2019-04-27T09:47:03.365Z,7.87
2019-04-27T09:49:29.793Z,5.83
2019-04-27T09:51:56.227Z,5.30
2019-04-27T09:54:23.734Z,10.80
2019-04-27T09:56:50.438Z,6.30
2019-04-27T09:59:16.853Z,11.80
2019-04-27T10:01:43.289Z,8.30
2019-04-27T10:04:09.825Z,7.40
2019-04-27T10:06:36.299Z,7.93
2019-04-27T10:09:06.575Z,9.00
2019-04-27T10:11:32.908Z,7.80
2019-04-27T10:14:08.349Z,7.23
2019-04-27T10:16:36.570Z,6.73
2019-04-27T10:19:03.171Z,9.87
2019-04-27T10:21:29.596Z,8.27
2019-04-27T10:23:56.790Z,8.03
2019-04-27T10:26:23.280Z,7.73
2019-04-27T10:28:49.509Z,9.93
2019-04-27T10:31:16.272Z,10.00
2019-04-27T10:33:42.603Z,9.73
2019-04-27T10:36:09.114Z,9.50
2019-04-27T10:38:36.017Z,7.67
2019-04-27T10:41:02.408Z,8.43
2019-04-27T10:43:28.696Z,7.60
2019-04-27T10:45:56.534Z,7.77
2019-04-27T10:48:23.027Z,12.90
2019-04-27T10:50:49.759Z,10.07
2019-04-27T10:53:16.885Z,8.17
2019-04-27T10:55:43.440Z,10.70
2019-04-27T10:58:09.878Z,9.07
2019-04-27T11:00:47.574Z,10.53
2019-04-27T11:03:16.654Z,12.27
2019-04-27T11:05:46.023Z,11.17
2019-04-27T11:08:12.715Z,8.47
2019-04-27T11:10:39.146Z,7.77
2019-04-27T11:13:06.281Z,8.33
2019-04-27T11:15:33.036Z,11.53
2019-04-27T11:17:59.464Z,10.13
2019-04-27T11:20:27.734Z,8.47
2019-04-27T11:23:00.767Z,8.97
2019-04-27T11:25:22.147Z,8.20
2019-04-27T11:27:48.471Z,8.73
2019-04-27T11:30:15.773Z,9.77
2019-04-27T11:32:42.480Z,8.07
2019-04-27T11:35:15.685Z,11.83
2019-04-27T11:37:42.088Z,6.03
2019-04-27T11:40:09.955Z,10.17
2019-04-27T11:42:36.393Z,10.87
2019-04-27T11:45:06.600Z,9.40
2019-04-27T11:47:33.070Z,9.17
2019-04-27T11:49:59.395Z,9.40
2019-04-27T11:52:26.044Z,6.97
2019-04-27T11:54:52.465Z,5.33
2019-04-27T11:57:18.795Z,6.33
2019-04-27T11:59:45.047Z,7.57
2019-04-27T12:02:11.343Z,8.03
2019-04-27T12:04:37.908Z,7.70
2019-04-27T12:07:04.320Z,6.90
2019-04-27T12:09:30.654Z,4.93
2019-04-27T12:12:06.787Z,10.93
2019-04-27T12:14:25.258Z,10.30
2019-04-27T12:16:51.588Z,7.23
2019-04-27T12:19:17.918Z,6.33
2019-04-27T12:21:44.165Z,8.77
2019-04-27T12:24:10.503Z,4.90
2019-04-27T12:26:38.753Z,7.60
2019-04-27T12:29:07.213Z,9.57
2019-04-27T12:31:38.116Z,6.83
2019-04-27T12:34:06.133Z,6.67
2019-04-27T12:36:32.520Z,6.03
2019-04-27T12:38:58.903Z,6.10
2019-04-27T12:41:25.553Z,9.10
2019-04-27T12:43:52.067Z,5.23
2019-04-27T12:46:18.508Z,7.30
2019-04-27T12:48:45.988Z,8.30
2019-04-27T12:51:12.398Z,7.90
2019-04-27T12:53:50.081Z,5.10
2019-04-27T12:56:22.473Z,5.33
2019-04-27T12:58:50.674Z,5.17
2019-04-27T13:01:22.091Z,3.43
2019-04-27T13:03:48.423Z,7.83
2019-04-27T13:06:14.752Z,6.60
2019-04-27T13:08:41.083Z,6.37
2019-04-27T13:11:07.414Z,7.40
2019-04-27T13:13:33.743Z,8.17
2019-04-27T13:16:00.018Z,7.20
2019-04-27T13:18:26.406Z,3.90
2019-04-27T13:20:52.700Z,4.77
2019-04-27T13:23:19.021Z,2.83
2019-04-27T13:25:46.090Z,4.30
2019-04-27T13:28:12.854Z,2.63
2019-04-27T13:30:39.184Z,2.10
2019-04-27T13:33:05.515Z,3.60
2019-04-27T13:35:33.992Z,3.17
2019-04-27T13:38:00.530Z,2.00
2019-04-27T13:40:26.860Z,5.27
2019-04-27T13:43:11.478Z,2.80
2019-04-27T13:45:57.856Z,2.00
2019-04-27T13:48:29.165Z,4.90
2019-04-27T13:50:57.673Z,2.93
2019-04-27T13:53:24.079Z,1.90
2019-04-27T13:55:50.410Z,2.80
2019-04-27T13:58:16.741Z,3.03
2019-04-27T14:00:43.070Z,2.87
2019-04-27T14:03:09.503Z,2.90
2019-04-27T14:05:35.833Z,4.10
2019-04-27T14:08:02.164Z,4.33
2019-04-27T14:10:28.686Z,6.87
2019-04-27T14:12:55.056Z,5.77
2019-04-27T14:15:21.532Z,4.30
2019-04-27T14:17:49.842Z,4.40
2019-04-27T14:20:17.984Z,6.70
2019-04-27T14:22:44.548Z,6.17
2019-04-27T14:25:11.288Z,5.57
2019-04-27T14:27:40.676Z,6.17
2019-04-27T14:30:10.705Z,7.73
2019-04-27T14:32:38.722Z,7.17
2019-04-27T14:35:05.419Z,3.77
2019-04-27T14:37:31.849Z,8.70
2019-04-27T14:39:59.713Z,5.83
2019-04-27T14:42:26.253Z,5.47
2019-04-27T14:44:52.515Z,6.20
2019-04-27T14:47:18.985Z,6.00
2019-04-27T14:49:45.326Z,6.03
2019-04-27T14:52:11.753Z,6.10
2019-04-27T14:54:46.039Z,7.00
2019-04-27T14:57:06.187Z,10.03
2019-04-27T14:59:32.509Z,6.17
2019-04-27T15:02:00.103Z,8.67
2019-04-27T15:04:27.093Z,7.87
2019-04-27T15:06:55.501Z,6.70
2019-04-27T15:09:21.721Z,6.80
2019-04-27T15:11:49.342Z,6.33
2019-04-27T15:14:16.302Z,7.43
2019-04-27T15:16:47.087Z,5.60
2019-04-27T15:19:21.559Z,6.93
2019-04-27T15:21:57.775Z,6.70
2019-04-27T15:24:16.088Z,5.27
2019-04-27T15:26:42.395Z,7.20
2019-04-27T15:29:12.074Z,5.30
2019-04-27T15:31:40.851Z,6.90
2019-04-27T15:34:12.297Z,4.63
2019-04-27T15:36:46.289Z,4.90
2019-04-27T15:39:26.980Z,8.30
2019-04-27T15:41:55.123Z,7.70
2019-04-27T15:44:21.740Z,7.40
2019-04-27T15:46:48.187Z,8.57
2019-04-27T15:49:14.550Z,7.57
2019-04-27T15:51:40.956Z,9.30
2019-04-27T15:54:07.344Z,10.90
2019-04-27T15:56:35.290Z,8.17
2019-04-27T15:59:01.721Z,9.33
2019-04-27T16:01:29.702Z,10.80
2019-04-27T16:03:58.246Z,10.20
2019-04-27T16:06:24.744Z,10.67
2019-04-27T16:08:51.292Z,10.27
2019-04-27T16:11:19.762Z,9.40
2019-04-27T16:13:46.010Z,8.20
2019-04-27T16:16:12.443Z,11.40
2019-04-27T16:18:38.949Z,8.10
2019-04-27T16:21:07.055Z,8.13
2019-04-27T16:23:37.687Z,8.77
2019-04-27T16:26:04.985Z,13.17
2019-04-27T16:28:30.252Z,7.27
2019-04-27T16:30:58.162Z,8.37
2019-04-27T16:33:24.863Z,4.30
2019-04-27T16:35:53.098Z,8.00
2019-04-27T16:38:34.819Z,8.67
2019-04-27T16:41:03.334Z,4.93
2019-04-27T16:43:32.693Z,10.10
2019-04-27T16:46:04.098Z,6.93
2019-04-27T16:48:28.095Z,7.33
2019-04-27T16:50:55.147Z,9.00
2019-04-27T16:53:21.807Z,6.40
2019-04-27T16:55:59.478Z,10.10
2019-04-27T16:58:20.219Z,12.10
2019-04-27T17:00:44.685Z,8.43
2019-04-27T17:03:11.125Z,9.43
2019-04-27T17:05:38.035Z,6.83
2019-04-27T17:08:04.603Z,12.13
2019-04-27T17:10:31.239Z,11.03
2019-04-27T17:12:59.102Z,9.57
2019-04-27T17:15:46.134Z,9.70
2019-04-27T17:18:32.885Z,5.23
2019-04-27T17:21:01.027Z,15.03
2019-04-27T17:23:29.549Z,9.13
2019-04-27T17:26:06.032Z,7.30
2019-04-27T17:28:48.501Z,11.50
2019-04-27T17:31:19.737Z,6.30
2019-04-27T17:33:48.839Z,8.23
2019-04-27T17:36:16.245Z,9.37
2019-04-27T17:38:46.657Z,9.50
2019-04-27T17:41:12.613Z,8.03
2019-04-27T17:43:41.500Z,11.30
2019-04-27T17:46:07.491Z,9.57
2019-04-27T17:48:35.039Z,8.50
2019-04-27T17:51:03.493Z,7.43
2019-04-27T17:53:32.991Z,10.73
2019-04-27T17:56:02.911Z,6.97
2019-04-27T17:58:25.685Z,9.73
2019-04-27T18:00:51.994Z,7.93
2019-04-27T18:03:21.076Z,6.80
2019-04-27T18:05:49.192Z,8.60
2019-04-27T18:08:18.772Z,6.87
2019-04-27T18:10:42.700Z,11.90
2019-04-27T18:13:09.134Z,6.83
2019-04-27T18:15:35.580Z,11.87
2019-04-27T18:18:04.251Z,11.47
2019-04-27T18:20:30.485Z,5.67
2019-04-27T18:23:15.009Z,7.80
2019-04-27T18:25:43.529Z,8.23
2019-04-27T18:28:15.170Z,7.00
2019-04-27T18:30:52.910Z,8.43
2019-04-27T18:33:19.250Z,7.50
2019-04-27T18:35:45.633Z,12.20
2019-04-27T18:38:11.861Z,7.37
2019-04-27T18:40:39.964Z,12.03
2019-04-27T18:43:09.616Z,8.07
2019-04-27T18:45:38.056Z,9.80
2019-04-27T18:48:06.567Z,4.97
2019-04-27T18:50:38.412Z,9.10
2019-04-27T18:53:09.708Z,6.70
2019-04-27T18:55:35.929Z,6.17
2019-04-27T18:58:02.267Z,9.27
2019-04-27T19:00:29.507Z,6.23
2019-04-27T19:02:55.960Z,5.40
2019-04-27T19:05:22.261Z,9.13
2019-04-27T19:07:48.601Z,10.33
2019-04-27T19:10:14.853Z,9.17
2019-04-27T19:12:41.269Z,6.80
2019-04-27T19:15:08.356Z,10.07
2019-04-27T19:17:34.760Z,6.97
2019-04-27T19:20:01.084Z,9.53
2019-04-27T19:22:27.999Z,9.13
2019-04-27T19:24:55.485Z,8.20
2019-04-27T19:27:42.543Z,7.27
2019-04-27T19:30:19.531Z,8.00
2019-04-27T19:32:45.915Z,7.87
2019-04-27T19:35:12.350Z,11.23
2019-04-27T19:37:39.795Z,7.33
2019-04-27T19:40:08.510Z,6.97
2019-04-27T19:42:35.307Z,7.17
2019-04-27T19:45:03.608Z,11.00
2019-04-27T19:47:30.031Z,8.03
2019-04-27T19:49:56.582Z,6.93
2019-04-27T19:52:22.909Z,7.67
2019-04-27T19:54:49.454Z,5.90
2019-04-27T19:57:29.343Z,8.03
2019-04-27T19:59:49.081Z,5.63
2019-04-27T20:02:18.473Z,8.17
2019-04-27T20:04:47.375Z,5.83
2019-04-27T20:07:13.690Z,6.77
2019-04-27T20:09:49.690Z,4.77
2019-04-27T20:12:16.407Z,5.47
2019-04-27T20:14:54.725Z,5.50
2019-04-27T20:17:22.346Z,5.27
2019-04-27T20:19:48.898Z,5.47
2019-04-27T20:22:15.224Z,7.90
2019-04-27T20:24:41.557Z,4.47
2019-04-27T20:27:08.107Z,8.00
2019-04-27T20:29:34.415Z,5.53
2019-04-27T20:32:01.187Z,5.77
2019-04-27T20:34:27.692Z,6.67
2019-04-27T20:36:54.025Z,6.80
2019-04-27T20:39:20.353Z,7.67
2019-04-27T20:41:46.634Z,7.53
2019-04-27T20:44:13.014Z,8.77
2019-04-27T20:46:41.215Z,6.27
2019-04-27T20:49:20.337Z,5.80
2019-04-27T20:52:07.539Z,8.40
2019-04-27T20:54:33.778Z,9.57
2019-04-27T20:57:01.531Z,6.97
2019-04-27T20:59:28.067Z,10.53
2019-04-27T21:01:54.406Z,9.70
2019-04-27T21:04:25.732Z,7.67
2019-04-27T21:06:53.925Z,8.60
2019-04-27T21:09:21.345Z,9.63
2019-04-27T21:11:48.359Z,7.67
2019-04-27T21:14:14.877Z,8.60
2019-04-27T21:16:41.798Z,4.63
2019-04-27T21:19:08.027Z,5.30
2019-04-27T21:21:34.329Z,5.63
2019-04-27T21:24:00.688Z,8.83
2019-04-27T21:26:27.017Z,8.10
2019-04-27T21:28:53.284Z,6.37
2019-04-27T21:31:21.278Z,5.70
2019-04-27T21:33:47.711Z,4.50
2019-04-27T21:36:14.182Z,7.17
2019-04-27T21:38:41.157Z,8.00
2019-04-27T21:41:08.685Z,8.07
2019-04-27T21:43:35.335Z,8.10
2019-04-27T21:46:01.672Z,8.73
2019-04-27T21:48:27.984Z,6.03
2019-04-27T21:50:54.326Z,8.93
2019-04-27T21:53:34.571Z,6.80
2019-04-27T21:56:02.759Z,8.90
2019-04-27T21:58:33.244Z,6.07
2019-04-27T22:01:12.913Z,5.67
2019-04-27T22:03:38.624Z,13.87
2019-04-27T22:06:05.115Z,7.07
2019-04-27T22:08:31.832Z,9.20
2019-04-27T22:10:58.668Z,10.07
2019-04-27T22:13:25.599Z,8.17
2019-04-27T22:15:52.023Z,6.90
2019-04-27T22:18:18.358Z,8.57
2019-04-27T22:20:44.788Z,9.77
2019-04-27T22:23:31.802Z,10.00
2019-04-27T22:25:58.156Z,8.27
2019-04-27T22:28:24.670Z,6.37
2019-04-27T22:30:50.999Z,8.40
2019-04-27T22:33:17.329Z,8.40
2019-04-27T22:35:43.660Z,8.03
2019-04-27T22:38:11.841Z,12.10
2019-04-27T22:40:52.342Z,9.10
2019-04-27T22:43:20.787Z,9.97
2019-04-27T22:45:47.210Z,9.97
2019-04-27T22:48:13.447Z,7.43
2019-04-27T22:50:41.311Z,9.17
2019-04-27T22:53:08.484Z,11.60
2019-04-27T22:55:36.936Z,10.80
2019-04-27T22:58:14.117Z,8.50
2019-04-27T23:00:48.186Z,7.53
2019-04-27T23:03:16.767Z,8.03
2019-04-27T23:05:43.221Z,8.87
2019-04-27T23:08:09.577Z,13.47
2019-04-27T23:10:35.813Z,8.53
2019-04-27T23:13:02.135Z,8.57
2019-04-27T23:15:30.643Z,10.50
2019-04-27T23:17:58.695Z,8.83
2019-04-27T23:20:24.877Z,9.83
2019-04-27T23:22:53.100Z,7.20
2019-04-27T23:25:19.459Z,12.37
2019-04-27T23:27:45.856Z,10.13
2019-04-27T23:30:13.103Z,7.47
2019-04-27T23:32:51.441Z,7.00
2019-04-27T23:35:18.703Z,7.80
2019-04-27T23:37:45.099Z,11.50
2019-04-27T23:40:11.604Z,12.90
2019-04-27T23:42:37.965Z,13.30
2019-04-27T23:45:07.470Z,9.33
2019-04-27T23:47:33.800Z,8.73
2019-04-27T23:50:00.819Z,8.80
2019-04-27T23:52:45.988Z,9.57
2019-04-27T23:55:12.317Z,10.80
2019-04-27T23:57:38.568Z,9.40
